Time;durP1;ratioP1;P1;durP2;ratioP2;P2;SDS_P1;SDS_P2;PMS_P1;PMS_P2;Temp;Humidity;BMP_temperature;BMP_pressure;BME280_temperature;BME280_humidity;BME280_pressure;Samples;Min_cycle;Max_cycle;Signal;HPM_P1;HPM_P2
2022/12/11 00:02:19;;;;;;;67.40;42.10;;;;;;;-0.04;100.00;96725.36;1709955;83;20881;-78
2022/12/11 00:04:45;;;;;;;69.53;45.00;;;;;;;-0.06;100.00;96727.47;1715982;83;21016;-78
2022/12/11 00:07:11;;;;;;;129.82;69.87;;;;;;;-0.10;100.00;96727.66;1742180;82;20938;-80
2022/12/11 00:09:37;;;;;;;84.22;45.35;;;;;;;-0.07;100.00;96728.52;1742202;82;20958;-80
2022/12/11 00:12:06;;;;;;;122.45;69.95;;;;;;;-0.07;100.00;96722.67;1741941;82;21054;-80
2022/12/11 00:14:32;;;;;;;45.85;26.60;;;;;;;-0.11;100.00;96712.20;1742200;82;22031;-80
2022/12/11 00:16:58;;;;;;;71.50;45.58;;;;;;;-0.12;100.00;96703.94;1742065;82;21093;-78
2022/12/11 00:19:24;;;;;;;37.50;24.15;;;;;;;-0.20;100.00;96707.53;1742010;82;21037;-80
2022/12/11 00:21:50;;;;;;;71.85;49.53;;;;;;;-0.22;100.00;96701.13;1742151;82;20899;-80
2022/12/11 00:24:16;;;;;;;150.40;79.20;;;;;;;-0.21;100.00;96708.06;1742078;82;21810;-80
2022/12/11 00:26:42;;;;;;;145.15;87.27;;;;;;;-0.19;100.00;96709.14;1741955;82;20879;-78
2022/12/11 00:29:13;;;;;;;130.65;83.03;;;;;;;-0.18;100.00;96705.42;1742159;82;20975;-80
2022/12/11 00:31:37;;;;;;;88.87;48.23;;;;;;;-0.17;100.00;96702.55;1741746;82;21178;-78
2022/12/11 00:34:03;;;;;;;152.02;81.50;;;;;;;-0.16;100.00;96698.03;1741924;82;21580;-78
2022/12/11 00:36:29;;;;;;;124.25;92.20;;;;;;;-0.15;100.00;96692.45;1742091;82;21161;-78
2022/12/11 00:38:55;;;;;;;44.80;31.33;;;;;;;-0.20;100.00;96700.35;1742084;82;21660;-80
2022/12/11 00:41:21;;;;;;;75.87;43.83;;;;;;;-0.15;100.00;96702.30;1742145;82;20890;-79
2022/12/11 00:43:46;;;;;;;93.27;51.28;;;;;;;-0.19;100.00;96705.95;1742011;82;21485;-78
2022/12/11 00:46:12;;;;;;;141.28;71.53;;;;;;;-0.20;100.00;96698.22;1742156;82;20938;-79
2022/12/11 00:48:38;;;;;;;105.17;55.95;;;;;;;-0.19;100.00;96698.49;1741930;82;21721;-78
2022/12/11 00:51:05;;;;;;;66.40;34.25;;;;;;;-0.25;100.00;96701.63;1724554;82;21104;-81
2022/12/11 00:53:30;;;;;;;42.75;30.48;;;;;;;-0.26;100.00;96694.66;1712627;83;21017;-80
2022/12/11 00:55:56;;;;;;;28.15;15.85;;;;;;;-0.20;100.00;96700.87;1712506;83;20847;-80
2022/12/11 00:58:22;;;;;;;24.15;15.68;;;;;;;-0.29;100.00;96694.63;1712569;83;20906;-80
2022/12/11 01:00:48;;;;;;;61.53;40.45;;;;;;;-0.29;100.00;96701.28;1717621;82;21172;-78
2022/12/11 01:03:14;;;;;;;47.88;27.65;;;;;;;-0.33;100.00;96698.84;1741912;82;21034;-78
2022/12/11 01:05:40;;;;;;;88.95;53.52;;;;;;;-0.32;100.00;96692.46;1742552;82;20887;-80
2022/12/11 01:08:06;;;;;;;26.20;18.65;;;;;;;-0.29;100.00;96697.81;1742123;82;20890;-78
2022/12/11 01:10:32;;;;;;;50.33;29.65;;;;;;;-0.28;100.00;96703.42;1742158;82;20883;-81
2022/12/11 01:13:04;;;;;;;28.55;15.63;;;;;;;-0.23;100.00;96704.03;1742292;82;20942;-79
2022/12/11 01:15:34;;;;;;;41.73;26.62;;;;;;;-0.22;100.00;96705.12;1742147;82;21029;-80
2022/12/11 01:18:00;;;;;;;79.97;47.67;;;;;;;-0.24;100.00;96698.44;1741335;82;21026;-80
2022/12/11 01:20:26;;;;;;;48.20;28.35;;;;;;;-0.27;100.00;96690.91;1742249;82;21061;-79
2022/12/11 01:22:54;;;;;;;58.70;37.42;;;;;;;-0.26;100.00;96689.86;1742170;82;20987;-78
2022/12/11 01:25:20;;;;;;;71.07;48.20;;;;;;;-0.24;100.00;96693.91;1742166;82;21081;-79
2022/12/11 01:27:46;;;;;;;32.20;21.15;;;;;;;-0.21;100.00;96691.28;1741979;82;20962;-79
2022/12/11 01:30:12;;;;;;;36.98;23.52;;;;;;;-0.20;100.00;96695.03;1741979;82;20911;-80
2022/12/11 01:32:38;;;;;;;34.27;22.77;;;;;;;-0.17;100.00;96697.22;1741758;82;20895;-81
2022/12/11 01:35:05;;;;;;;166.57;98.70;;;;;;;-0.18;100.00;96688.92;1741926;82;20974;-81
2022/12/11 01:37:31;;;;;;;93.87;57.53;;;;;;;-0.18;100.00;96690.26;1742033;82;21408;-78
2022/12/11 01:39:57;;;;;;;30.25;18.45;;;;;;;-0.17;100.00;96694.56;1742109;82;20895;-80
2022/12/11 01:42:24;;;;;;;47.85;29.80;;;;;;;-0.17;100.00;96693.72;1742125;82;20950;-79
2022/12/11 01:45:13;;;;;;;44.25;27.55;;;;;;;-0.19;100.00;96691.31;1742317;82;21077;-79
2022/12/11 01:47:39;;;;;;;38.28;23.40;;;;;;;-0.21;100.00;96691.28;1742011;82;21101;-79
2022/12/11 01:50:06;;;;;;;61.37;30.48;;;;;;;-0.29;100.00;96685.84;1738806;82;21178;-79
2022/12/11 01:52:32;;;;;;;53.30;27.95;;;;;;;-0.32;100.00;96679.67;1706149;84;21005;-79
2022/12/11 01:54:57;;;;;;;40.35;21.02;;;;;;;-0.31;100.00;96686.08;1710470;83;20902;-79
2022/12/11 01:57:23;;;;;;;80.10;42.95;;;;;;;-0.28;100.00;96675.47;1706273;84;20949;-78
2022/12/11 01:59:49;;;;;;;41.90;24.40;;;;;;;-0.28;100.00;96670.14;1710573;83;21058;-78
2022/12/11 02:02:29;;;;;;;80.92;40.48;;;;;;;-0.30;100.00;96668.25;1713203;83;21338;-81
2022/12/11 02:04:55;;;;;;;65.30;35.58;;;;;;;-0.26;100.00;96668.56;1715483;83;21003;-79
2022/12/11 02:07:21;;;;;;;26.45;16.37;;;;;;;-0.25;100.00;96664.34;1715401;83;20918;-80
2022/12/11 02:09:47;;;;;;;38.50;21.02;;;;;;;-0.34;100.00;96660.48;1715499;83;20870;-79
2022/12/11 02:12:27;;;;;;;110.35;55.40;;;;;;;-0.32;100.00;96667.17;1715357;83;20962;-80
2022/12/11 02:15:25;;;;;;;62.38;33.95;;;;;;;-0.32;100.00;96671.69;1715608;83;21562;-80
2022/12/11 02:18:17;;;;;;;70.87;33.53;;;;;;;-0.36;100.00;96669.22;1715262;83;21049;-79
2022/12/11 02:20:54;;;;;;;83.62;38.92;;;;;;;-0.33;100.00;96675.41;1715466;83;21036;-79
2022/12/11 02:23:34;;;;;;;32.20;15.58;;;;;;;-0.35;100.00;96668.16;1715375;83;21082;-81
2022/12/11 02:26:09;;;;;;;30.72;18.00;;;;;;;-0.33;100.00;96658.11;1715005;83;21017;-79
2022/12/11 02:28:48;;;;;;;130.63;59.77;;;;;;;-0.35;100.00;96656.99;1715438;83;21067;-79
2022/12/11 02:31:37;;;;;;;98.12;49.63;;;;;;;-0.39;100.00;96645.76;1715484;83;28585;-81
2022/12/11 02:34:20;;;;;;;43.28;22.98;;;;;;;-0.40;100.00;96642.30;1715383;83;21044;-79
2022/12/11 02:36:50;;;;;;;123.22;57.85;;;;;;;-0.38;100.00;96654.02;1715512;83;21077;-80
2022/12/11 02:39:16;;;;;;;95.57;47.73;;;;;;;-0.43;100.00;96649.94;1715202;83;21042;-81
2022/12/11 02:41:45;;;;;;;49.05;23.47;;;;;;;-0.42;100.00;96643.06;1715514;83;22276;-81
2022/12/11 02:44:11;;;;;;;;;;;;;;;-0.38;100.00;96645.51;1717796;83;21034;-80
2022/12/11 02:46:37;;;;;;;34.78;17.52;;;;;;;-0.49;100.00;96642.95;1716902;83;20211;-79
2022/12/11 02:49:04;;;;;;;37.63;19.48;;;;;;;-0.48;100.00;96642.70;1745015;82;20883;-80
2022/12/11 02:51:32;;;;;;;38.90;21.85;;;;;;;-0.44;100.00;96642.48;1715407;82;21100;-79
2022/12/11 02:53:58;;;;;;;52.40;32.10;;;;;;;-0.45;100.00;96647.52;1710206;83;21061;-78
2022/12/11 02:56:35;;;;;;;22.48;12.75;;;;;;;-0.44;100.00;96647.00;1706201;83;20921;-79
2022/12/11 02:59:06;;;;;;;38.58;23.00;;;;;;;-0.45;100.00;96645.39;1710183;83;21065;-80
2022/12/11 03:01:32;;;;;;;30.72;17.95;;;;;;;-0.43;100.00;96633.44;1710482;83;21084;-79
2022/12/11 03:03:58;;;;;;;28.17;16.60;;;;;;;-0.41;100.00;96643.88;1715426;83;20981;-79
2022/12/11 03:06:31;;;;;;;27.50;16.05;;;;;;;-0.41;100.00;96640.69;1715708;83;21149;-80
2022/12/11 03:08:57;;;;;;;20.23;11.85;;;;;;;-0.39;100.00;96638.58;1715206;83;21022;-79
2022/12/11 03:11:23;;;;;;;31.80;20.25;;;;;;;-0.34;100.00;96643.19;1715420;83;20906;-79
2022/12/11 03:13:49;;;;;;;22.05;13.28;;;;;;;-0.36;100.00;96636.75;1715464;83;20943;-81
2022/12/11 03:16:36;;;;;;;21.27;11.60;;;;;;;-0.39;100.00;96621.80;1715456;83;20958;-81
2022/12/11 03:19:26;;;;;;;18.52;10.48;;;;;;;-0.43;100.00;96628.12;1715310;83;21153;-79
2022/12/11 03:22:01;;;;;;;25.00;14.63;;;;;;;-0.47;100.00;96625.67;1715511;83;21014;-79
2022/12/11 03:24:53;;;;;;;16.45;9.58;;;;;;;-0.46;100.00;96623.30;1715135;83;21296;-79
2022/12/11 03:27:30;;;;;;;20.82;10.93;;;;;;;-0.50;100.00;96618.19;1716737;83;21080;-78
2022/12/11 03:30:03;;;;;;;12.85;8.93;;;;;;;-0.45;100.00;96616.11;1716065;83;20981;-80
2022/12/11 03:32:37;;;;;;;15.45;8.53;;;;;;;-0.49;100.00;96620.33;1716868;83;21859;-78
2022/12/11 03:35:10;;;;;;;11.55;6.70;;;;;;;-0.54;100.00;96615.72;1745039;82;21030;-79
2022/12/11 03:37:36;;;;;;;15.95;9.40;;;;;;;-0.58;100.00;96618.07;1745004;82;21058;-80
2022/12/11 03:40:08;;;;;;;18.70;10.35;;;;;;;-0.57;100.00;96617.55;1745151;82;20991;-79
2022/12/11 03:42:34;;;;;;;14.95;9.15;;;;;;;-0.55;100.00;96621.28;1744951;82;21018;-79
2022/12/11 03:45:00;;;;;;;15.48;7.90;;;;;;;-0.51;100.00;96620.58;1745197;82;21022;-80
2022/12/11 03:47:26;;;;;;;13.83;7.62;;;;;;;-0.57;100.00;96621.01;1717676;82;21683;-80
2022/12/11 03:49:52;;;;;;;21.97;11.88;;;;;;;-0.58;100.00;96618.59;1741755;82;21009;-80
2022/12/11 03:52:18;;;;;;;20.70;11.88;;;;;;;-0.57;100.00;96620.20;1710228;83;21490;-80
2022/12/11 03:54:45;;;;;;;16.65;9.55;;;;;;;-0.70;100.00;96617.86;1706400;83;21386;-81
2022/12/11 03:57:15;;;;;;;15.35;7.90;;;;;;;-0.71;100.00;96618.91;1692903;83;21588;-79
2022/12/11 03:59:41;;;;;;;20.70;13.98;;;;;;;-0.78;100.00;96623.05;1707675;83;21016;-79
2022/12/11 04:02:09;;;;;;;16.95;9.75;;;;;;;-0.75;100.00;96626.58;1704170;83;20932;-80
2022/12/11 04:04:34;;;;;;;13.10;7.70;;;;;;;-0.73;100.00;96625.00;1700095;84;21512;-81
2022/12/11 04:07:00;;;;;;;15.72;8.98;;;;;;;-0.79;100.00;96617.98;1700371;84;20885;-81
2022/12/11 04:09:26;;;;;;;14.73;7.97;;;;;;;-0.73;100.00;96617.02;1700218;84;20943;-79
2022/12/11 04:11:52;;;;;;;16.25;8.23;;;;;;;-0.72;100.00;96621.28;1700359;84;20893;-79
2022/12/11 04:17:03;;;;;;;18.32;9.20;;;;;;;-0.77;100.00;96606.06;1700099;84;21098;-79
2022/12/11 04:25:00;;;;;;;14.03;7.40;;;;;;;-0.85;100.00;96619.77;1700439;84;21023;-79
2022/12/11 04:30:19;;;;;;;13.38;6.80;;;;;;;-0.88;100.00;96617.56;1700254;84;21448;-80
2022/12/11 04:32:44;;;;;;;17.57;8.38;;;;;;;-0.88;100.00;96611.72;1698992;84;21076;-79
2022/12/11 04:35:10;;;;;;;13.50;7.37;;;;;;;-0.89;100.00;96610.11;1700412;84;20959;-79
2022/12/11 04:37:37;;;;;;;15.08;8.65;;;;;;;-0.88;100.00;96603.75;1700050;84;21035;-79
2022/12/11 04:40:05;;;;;;;16.97;9.48;;;;;;;-0.89;100.00;96610.64;1700380;84;21011;-80
2022/12/11 04:42:31;;;;;;;12.93;7.22;;;;;;;-0.92;100.00;96608.47;1700376;84;21539;-79
2022/12/11 04:44:57;;;;;;;15.35;8.28;;;;;;;-1.01;100.00;96609.92;1700320;84;20967;-79
2022/12/11 04:47:23;;;;;;;18.80;12.28;;;;;;;-0.95;100.00;96604.42;1700357;84;21849;-80
2022/12/11 04:49:49;;;;;;;14.80;9.03;;;;;;;-0.97;100.00;96601.20;1702384;83;20896;-80
2022/12/11 04:52:17;;;;;;;18.23;9.80;;;;;;;-1.00;100.00;96604.88;1723452;83;20981;-80
2022/12/11 04:54:42;;;;;;;19.42;12.37;;;;;;;-0.95;100.00;96604.42;1706985;84;21048;-79
2022/12/11 04:57:08;;;;;;;16.00;9.63;;;;;;;-0.97;100.00;96606.52;1728955;83;20901;-79
2022/12/11 04:59:34;;;;;;;15.75;8.50;;;;;;;-0.95;100.00;96603.62;1706643;84;21738;-79
2022/12/11 05:02:00;;;;;;;14.03;7.67;;;;;;;-0.99;100.00;96595.33;1719605;82;20958;-80
2022/12/11 05:04:32;;;;;;;9.40;5.83;;;;;;;-1.02;100.00;96594.48;1714634;83;21128;-79
2022/12/11 05:06:58;;;;;;;13.25;7.90;;;;;;;-1.01;100.00;96589.45;1714561;83;21042;-80
2022/12/11 05:09:25;;;;;;;11.60;6.42;;;;;;;-1.00;100.00;96592.91;1714584;83;21021;-80
2022/12/11 05:11:51;;;;;;;11.12;6.10;;;;;;;-0.97;100.00;96591.89;1714880;83;21082;-80
2022/12/11 05:14:17;;;;;;;10.95;6.62;;;;;;;-1.00;100.00;96582.28;1714381;83;21446;-79
2022/12/11 05:16:43;;;;;;;12.20;7.30;;;;;;;-1.02;100.00;96577.73;1714898;83;21002;-80
2022/12/11 05:19:09;;;;;;;14.40;6.85;;;;;;;-0.99;100.00;96583.36;1714696;83;21473;-79
2022/12/11 05:21:35;;;;;;;10.25;6.42;;;;;;;-1.00;100.00;96579.62;1715000;83;21000;-80
2022/12/11 05:24:01;;;;;;;9.65;6.83;;;;;;;-0.98;100.00;96590.28;1714686;83;21162;-80
2022/12/11 05:26:27;;;;;;;13.48;6.87;;;;;;;-1.02;100.00;96586.51;1714891;83;21049;-79
2022/12/11 05:28:53;;;;;;;11.20;6.17;;;;;;;-1.07;100.00;96584.28;1714810;83;20962;-80
2022/12/11 05:31:22;;;;;;;15.03;7.40;;;;;;;-1.09;100.00;96581.06;1714963;83;20940;-81
2022/12/11 05:33:49;;;;;;;16.97;12.18;;;;;;;-1.11;100.00;96588.45;1714771;83;21473;-79
2022/12/11 05:36:23;;;;;;;14.80;8.85;;;;;;;-1.09;100.00;96583.72;1714798;83;21141;-80
2022/12/11 05:38:50;;;;;;;11.28;7.22;;;;;;;-1.06;100.00;96580.05;1714677;83;21013;-80
2022/12/11 05:41:19;;;;;;;14.83;8.10;;;;;;;-1.10;100.00;96580.78;1715003;83;21049;-79
2022/12/11 05:43:45;;;;;;;13.72;8.10;;;;;;;-1.17;100.00;96568.97;1714657;83;21017;-80
2022/12/11 05:46:15;;;;;;;14.13;8.83;;;;;;;-1.10;100.00;96569.63;1715050;83;21029;-80
2022/12/11 05:48:41;;;;;;;13.90;7.83;;;;;;;-1.16;100.00;96562.08;1713691;83;21157;-81
2022/12/11 05:51:07;;;;;;;10.38;6.35;;;;;;;-1.11;100.00;96560.53;1718730;83;21033;-80
2022/12/11 05:53:35;;;;;;;12.03;6.40;;;;;;;-1.14;100.00;96563.96;1701656;84;20902;-80
2022/12/11 05:56:13;;;;;;;12.00;6.47;;;;;;;-1.07;100.00;96561.68;1721144;83;21068;-80
2022/12/11 05:58:39;;;;;;;12.53;6.72;;;;;;;-1.06;100.00;96553.98;1701522;84;21017;-80
2022/12/11 06:01:15;;;;;;;13.22;7.17;;;;;;;-1.02;100.00;96557.27;1719418;83;21438;-80
2022/12/11 06:03:40;;;;;;;12.28;6.15;;;;;;;-1.09;100.00;96559.27;1714617;83;21081;-80
2022/12/11 06:06:07;;;;;;;12.47;7.28;;;;;;;-1.15;100.00;96568.20;1714925;83;20968;-79
2022/12/11 06:08:33;;;;;;;14.10;5.87;;;;;;;-1.12;100.00;96568.23;1714841;83;21046;-80
2022/12/11 06:10:59;;;;;;;14.78;8.68;;;;;;;-1.18;100.00;96570.02;1715025;83;21078;-80
2022/12/11 06:13:25;;;;;;;13.08;6.58;;;;;;;-1.19;100.00;96569.21;1714694;83;20986;-80
2022/12/11 06:15:50;;;;;;;15.60;9.40;;;;;;;-1.24;100.00;96567.78;1714912;83;20895;-80
2022/12/11 06:18:16;;;;;;;15.32;6.95;;;;;;;-1.21;100.00;96573.13;1714805;83;21656;-81
2022/12/11 06:20:42;;;;;;;16.87;7.67;;;;;;;-1.25;100.00;96576.80;1715014;83;21042;-80
2022/12/11 06:23:08;;;;;;;15.18;7.37;;;;;;;-1.25;100.00;96579.47;1714725;83;20974;-80
2022/12/11 06:25:35;;;;;;;14.00;8.10;;;;;;;-1.29;100.00;96582.83;1715068;83;21376;-79
2022/12/11 06:28:01;;;;;;;14.35;9.38;;;;;;;-1.29;100.00;96589.47;1711803;83;21069;-79
2022/12/11 06:30:27;;;;;;;16.50;8.63;;;;;;;-1.29;100.00;96594.78;1715076;83;20901;-80
2022/12/11 06:32:53;;;;;;;13.88;8.13;;;;;;;-1.28;100.00;96600.38;1714647;83;21013;-80
2022/12/11 06:35:19;;;;;;;18.85;10.38;;;;;;;-1.28;100.00;96603.88;1714925;83;21679;-80
2022/12/11 06:37:44;;;;;;;12.93;8.00;;;;;;;-1.28;100.00;96602.55;1714849;83;21147;-80
2022/12/11 06:40:15;;;;;;;16.25;7.78;;;;;;;-1.29;100.00;96606.75;1714935;83;20895;-79
2022/12/11 06:42:38;;;;;;;18.25;11.25;;;;;;;-1.28;100.00;96597.72;1713577;83;21071;-80
2022/12/11 06:45:06;;;;;;;18.25;10.50;;;;;;;-1.33;100.00;96595.80;1715034;83;21013;-80
2022/12/11 06:47:32;;;;;;;12.98;7.62;;;;;;;-1.33;100.00;96589.16;1712129;83;21510;-80
2022/12/11 06:49:57;;;;;;;23.57;11.53;;;;;;;-1.31;100.00;96590.23;1716776;83;21041;-80
2022/12/11 06:52:24;;;;;;;19.62;10.03;;;;;;;-1.28;100.00;96590.59;1706942;84;20949;-80
2022/12/11 06:54:50;;;;;;;17.52;7.83;;;;;;;-1.26;100.00;96586.35;1729095;83;21088;-80
2022/12/11 06:57:16;;;;;;;14.25;8.05;;;;;;;-1.29;100.00;96592.94;1706941;84;20930;-79
2022/12/11 06:59:42;;;;;;;18.62;11.03;;;;;;;-1.25;100.00;96594.61;1728926;83;21064;-80
2022/12/11 07:02:14;;;;;;;21.27;12.25;;;;;;;-1.20;100.00;96603.98;1713092;83;22175;-81
2022/12/11 07:04:40;;;;;;;31.17;20.57;;;;;;;-1.24;100.00;96609.51;1714998;83;21029;-80
2022/12/11 07:07:07;;;;;;;25.17;15.23;;;;;;;-1.19;100.00;96622.90;1712984;83;20986;-80
2022/12/11 07:09:33;;;;;;;19.17;11.25;;;;;;;-1.28;100.00;96627.80;1712605;83;20959;-79
2022/12/11 07:11:58;;;;;;;20.32;12.00;;;;;;;-1.25;100.00;96626.50;1715522;83;22518;-80
2022/12/11 07:14:24;;;;;;;10.35;7.22;;;;;;;-1.28;100.00;96621.15;1715276;83;21066;-81
2022/12/11 07:16:50;;;;;;;16.27;7.30;;;;;;;-1.27;100.00;96628.60;1716931;83;21016;-80
2022/12/11 07:19:16;;;;;;;12.37;6.15;;;;;;;-1.35;100.00;96628.45;1744839;82;20883;-80
2022/12/11 07:21:42;;;;;;;21.10;13.55;;;;;;;-1.37;100.00;96631.85;1744993;82;21042;-80
2022/12/11 07:24:08;;;;;;;33.10;21.45;;;;;;;-1.30;100.00;96639.16;1744950;82;20891;-80
2022/12/11 07:26:34;;;;;;;39.40;27.13;;;;;;;-1.30;100.00;96638.36;1745150;82;21167;-79
2022/12/11 07:29:00;;;;;;;52.40;31.52;;;;;;;-1.32;100.00;96639.13;1744665;82;21569;-79
2022/12/11 07:31:28;;;;;;;47.83;29.40;;;;;;;-1.27;100.00;96640.04;1744861;82;20954;-81
2022/12/11 07:33:56;;;;;;;42.55;26.48;;;;;;;-1.32;100.00;96639.93;1744924;82;21018;-80
2022/12/11 07:36:22;;;;;;;40.12;23.70;;;;;;;-1.31;100.00;96630.11;1745090;82;21013;-80
2022/12/11 07:38:48;;;;;;;24.18;15.48;;;;;;;-1.29;100.00;96624.83;1744839;81;21841;-79
2022/12/11 07:41:14;;;;;;;17.48;10.82;;;;;;;-1.24;100.00;96623.60;1745084;82;20941;-81
2022/12/11 07:43:40;;;;;;;19.60;9.73;;;;;;;-1.30;100.00;96633.05;1744808;82;20990;-79
2022/12/11 07:46:12;;;;;;;14.03;8.48;;;;;;;-1.34;100.00;96634.58;1744785;82;21006;-80
2022/12/11 07:48:39;;;;;;;14.50;9.15;;;;;;;-1.38;100.00;96638.21;1744748;82;21497;-82
2022/12/11 07:51:15;;;;;;;15.78;8.95;;;;;;;-1.40;100.00;96633.66;1719230;82;21134;-80
2022/12/11 07:53:42;;;;;;;15.65;10.38;;;;;;;-1.35;100.00;96638.28;1720662;83;20993;-81
2022/12/11 07:56:08;;;;;;;16.25;9.90;;;;;;;-1.46;100.00;96641.24;1701521;84;20970;-81
2022/12/11 07:58:34;;;;;;;17.80;11.28;;;;;;;-1.45;100.00;96639.70;1720648;83;21004;-81
2022/12/11 08:01:00;;;;;;;18.07;10.72;;;;;;;-1.39;100.00;96628.62;1705135;83;21133;-79
2022/12/11 08:03:26;;;;;;;25.60;14.98;;;;;;;-1.40;100.00;96628.88;1715197;83;21288;-81
2022/12/11 08:05:52;;;;;;;28.38;15.98;;;;;;;-1.42;100.00;96624.61;1715485;83;21076;-81
2022/12/11 08:08:18;;;;;;;23.47;11.35;;;;;;;-1.40;100.00;96620.38;1715121;83;20883;-80
2022/12/11 08:10:44;;;;;;;24.07;11.45;;;;;;;-1.32;100.00;96628.50;1712862;83;20945;-79
2022/12/11 08:13:10;;;;;;;22.07;11.78;;;;;;;-1.28;100.00;96630.95;1715213;83;20899;-81
2022/12/11 08:15:36;;;;;;;24.70;12.60;;;;;;;-1.34;100.00;96627.41;1715563;83;21135;-81
2022/12/11 08:18:02;;;;;;;34.30;19.05;;;;;;;-1.36;100.00;96631.36;1715296;83;20949;-81
2022/12/11 08:20:29;;;;;;;35.88;21.85;;;;;;;-1.39;100.00;96635.80;1715488;83;21010;-81
2022/12/11 08:22:55;;;;;;;33.38;19.37;;;;;;;-1.39;100.00;96625.97;1715099;83;21029;-81
2022/12/11 08:25:22;;;;;;;32.15;17.67;;;;;;;-1.35;100.00;96623.66;1715435;83;21009;-81
2022/12/11 08:27:48;;;;;;;23.92;13.28;;;;;;;-1.38;100.00;96627.58;1715169;82;21140;-80
2022/12/11 08:30:14;;;;;;;26.70;16.00;;;;;;;-1.33;100.00;96640.17;1715346;83;21021;-81
2022/12/11 08:32:40;;;;;;;23.35;13.05;;;;;;;-1.35;100.00;96635.09;1715493;83;21544;-80
2022/12/11 08:35:07;;;;;;;22.60;13.98;;;;;;;-1.46;100.00;96640.72;1714975;83;20994;-81
2022/12/11 08:37:33;;;;;;;22.05;11.88;;;;;;;-1.45;100.00;96644.22;1715109;83;21056;-82
2022/12/11 08:39:59;;;;;;;21.75;12.30;;;;;;;-1.54;100.00;96637.63;1715190;83;21082;-80
2022/12/11 08:42:25;;;;;;;24.47;13.58;;;;;;;-1.57;100.00;96632.80;1715254;83;20878;-79
2022/12/11 08:44:51;;;;;;;29.72;14.25;;;;;;;-1.60;100.00;96634.09;1715316;83;20918;-80
2022/12/11 08:47:17;;;;;;;29.95;13.98;;;;;;;-1.51;100.00;96631.34;1715431;83;21386;-81
2022/12/11 08:49:43;;;;;;;26.60;13.62;;;;;;;-1.45;100.00;96639.70;1714790;83;20989;-79
2022/12/11 08:52:09;;;;;;;22.73;12.95;;;;;;;-1.42;100.00;96641.88;1721086;83;21145;-81
2022/12/11 08:54:36;;;;;;;22.10;12.10;;;;;;;-1.36;100.00;96650.77;1701449;84;21069;-81
2022/12/11 08:57:03;;;;;;;22.70;11.95;;;;;;;-1.40;100.00;96648.80;1720776;83;21064;-80
2022/12/11 08:59:28;;;;;;;24.82;12.47;;;;;;;-1.37;100.00;96656.29;1701342;84;20982;-81
2022/12/11 09:01:55;;;;;;;26.05;15.45;;;;;;;-1.46;100.00;96655.86;1726353;83;21019;-80
2022/12/11 09:04:22;;;;;;;20.65;12.00;;;;;;;-1.64;100.00;96655.52;1728901;82;21397;-80
2022/12/11 09:06:48;;;;;;;25.82;17.35;;;;;;;-1.62;100.00;96657.92;1729280;82;21027;-80
2022/12/11 09:09:13;;;;;;;27.30;16.62;;;;;;;-1.53;100.00;96657.88;1729015;82;20979;-84
2022/12/11 09:11:39;;;;;;;38.42;23.27;;;;;;;-1.55;100.00;96659.94;1729380;83;21510;-79
2022/12/11 09:14:05;;;;;;;40.50;26.12;;;;;;;-1.54;100.00;96654.91;1729171;83;20928;-80
2022/12/11 09:16:31;;;;;;;44.45;25.48;;;;;;;-1.54;100.00;96650.42;1729300;83;21819;-80
2022/12/11 09:18:57;;;;;;;44.73;26.87;;;;;;;-1.51;100.00;96647.81;1728896;83;20959;-79
2022/12/11 09:21:27;;;;;;;39.23;22.45;;;;;;;-1.43;100.00;96643.45;1729406;82;21020;-79
2022/12/11 09:23:56;;;;;;;38.35;22.05;;;;;;;-1.44;100.00;96641.31;1728935;82;21078;-81
2022/12/11 09:26:22;;;;;;;32.78;19.75;;;;;;;-1.44;100.00;96637.33;1728919;83;21472;-82
2022/12/11 09:28:51;;;;;;;25.30;15.13;;;;;;;-1.41;100.00;96634.71;1729120;82;21149;-82
2022/12/11 09:31:22;;;;;;;32.10;20.45;;;;;;;-1.37;100.00;96636.36;1728957;83;21024;-82
2022/12/11 09:33:48;;;;;;;30.08;18.48;;;;;;;-1.39;100.00;96632.62;1720681;83;21058;-81
2022/12/11 09:36:14;;;;;;;28.40;15.15;;;;;;;-1.28;100.00;96638.92;1729284;82;21366;-80
2022/12/11 09:38:42;;;;;;;28.62;14.65;;;;;;;-1.24;100.00;96645.39;1729078;82;20892;-81
2022/12/11 09:41:34;;;;;;;26.42;14.85;;;;;;;-1.23;100.00;96647.00;1729085;83;21084;-82
2022/12/11 09:44:18;;;;;;;23.55;13.90;;;;;;;-1.22;100.00;96656.06;1728794;82;21465;-82
2022/12/11 09:46:44;;;;;;;33.92;18.92;;;;;;;-1.13;100.00;96647.18;1729443;82;21031;-79
2022/12/11 09:49:30;;;;;;;29.65;14.65;;;;;;;-1.05;100.00;96656.63;1728851;83;21155;-79
2022/12/11 09:52:20;;;;;;;27.22;14.87;;;;;;;-1.18;100.00;96651.09;1701802;83;21075;-81
2022/12/11 09:54:57;;;;;;;24.02;12.60;;;;;;;-1.14;100.00;96641.06;1698448;84;21278;-79
2022/12/11 09:57:47;;;;;;;23.02;13.08;;;;;;;-1.26;100.00;96631.02;1700003;84;20995;-81
2022/12/11 10:00:34;;;;;;;26.70;13.48;;;;;;;-1.20;100.00;96627.41;1699862;84;21458;-82
2022/12/11 10:03:27;;;;;;;22.52;11.97;;;;;;;-1.14;100.00;96631.75;1699526;84;21051;-79
2022/12/11 10:06:23;;;;;;;22.27;12.28;;;;;;;-1.03;100.00;96634.59;1700324;84;21463;-79
2022/12/11 10:09:26;;;;;;;24.12;14.35;;;;;;;-1.16;100.00;96633.05;1699971;84;21204;-81
2022/12/11 10:12:01;;;;;;;27.60;14.80;;;;;;;-1.24;100.00;96632.91;1700275;84;21075;-82
2022/12/11 10:14:47;;;;;;;31.87;18.55;;;;;;;-1.13;100.00;96629.90;1699866;84;21080;-79
2022/12/11 10:17:30;;;;;;;25.55;14.43;;;;;;;-1.19;100.00;96626.36;1674067;84;21047;-82
2022/12/11 10:20:03;;;;;;;24.60;14.50;;;;;;;-1.03;100.00;96642.04;1700095;84;21046;-79
2022/12/11 10:22:30;;;;;;;25.17;13.32;;;;;;;-1.16;100.00;96637.84;1696970;84;21312;-79
2022/12/11 10:25:02;;;;;;;25.55;14.20;;;;;;;-1.20;100.00;96643.86;1699885;84;21035;-79
2022/12/11 10:27:32;;;;;;;23.12;12.78;;;;;;;-1.15;100.00;96638.12;1700177;84;21047;-81
2022/12/11 10:30:03;;;;;;;20.95;11.63;;;;;;;-1.22;100.00;96651.27;1700032;84;21572;-79
2022/12/11 10:32:47;;;;;;;28.90;14.40;;;;;;;-1.41;100.00;96658.62;1699257;84;21433;-81
2022/12/11 10:35:42;;;;;;;22.35;10.70;;;;;;;-1.45;100.00;96657.50;1684536;84;21162;-79
2022/12/11 10:38:17;;;;;;;28.35;14.93;;;;;;;-1.54;100.00;96649.59;1700063;84;21015;-82
2022/12/11 10:40:46;;;;;;;25.75;13.93;;;;;;;-1.66;100.00;96638.20;1699977;84;21144;-78
2022/12/11 10:43:12;;;;;;;31.70;18.02;;;;;;;-1.71;100.00;96641.06;1700059;84;21090;-79
2022/12/11 10:45:37;;;;;;;31.80;17.95;;;;;;;-1.63;100.00;96643.03;1700064;84;20987;-78
2022/12/11 10:48:06;;;;;;;37.60;21.02;;;;;;;-1.62;100.00;96636.19;1700178;84;22651;-82
2022/12/11 10:50:32;;;;;;;33.90;16.13;;;;;;;-1.56;100.00;96640.53;1700291;84;21054;-79
2022/12/11 10:52:58;;;;;;;32.33;17.57;;;;;;;-1.41;100.00;96641.36;1700220;82;21346;-78
2022/12/11 10:55:27;;;;;;;25.35;13.75;;;;;;;-1.46;100.00;96643.38;1700033;84;20885;-79
2022/12/11 10:58:02;;;;;;;31.62;16.93;;;;;;;-1.56;100.00;96635.22;1700112;82;21099;-82
2022/12/11 11:00:38;;;;;;;157.90;59.77;;;;;;;-1.52;100.00;96634.24;1699968;84;21130;-81
2022/12/11 11:03:06;;;;;;;75.55;35.68;;;;;;;-1.53;100.00;96635.29;1699955;84;21040;-79
2022/12/11 11:05:35;;;;;;;45.20;23.05;;;;;;;-1.59;100.00;96632.23;1700162;84;21004;-79
2022/12/11 11:08:18;;;;;;;42.80;22.33;;;;;;;-1.61;100.00;96626.36;1700320;84;21087;-78
2022/12/11 11:10:55;;;;;;;41.28;22.85;;;;;;;-1.53;100.00;96625.98;1700202;84;21071;-81
2022/12/11 11:13:23;;;;;;;33.70;19.35;;;;;;;-1.53;100.00;96622.00;1700062;84;21146;-79
2022/12/11 11:15:58;;;;;;;36.83;19.52;;;;;;;-1.49;100.00;96625.27;1700229;84;21024;-79
2022/12/11 11:18:25;;;;;;;33.48;16.57;;;;;;;-1.45;100.00;96619.77;1700109;84;21480;-82
2022/12/11 11:20:52;;;;;;;39.85;22.75;;;;;;;-1.35;100.00;96618.35;1700022;84;21027;-82
2022/12/11 11:23:18;;;;;;;32.93;21.50;;;;;;;-1.45;100.00;96621.62;1699931;84;21140;-82
2022/12/11 11:26:01;;;;;;;34.48;18.57;;;;;;;-1.37;100.00;96622.55;1700257;84;21183;-79
2022/12/11 11:28:35;;;;;;;25.52;13.43;;;;;;;-1.31;100.00;96615.48;1699955;83;21023;-79
2022/12/11 11:31:05;;;;;;;27.25;13.65;;;;;;;-1.34;100.00;96616.78;1728751;83;21032;-81
2022/12/11 11:33:32;;;;;;;27.07;13.38;;;;;;;-1.41;100.00;96620.09;1728871;83;21064;-78